Time;durP1;ratioP1;P1;durP2;ratioP2;P2;SDS_P1;SDS_P2;PMS_P1;PMS_P2;Temp;Humidity;BMP_temperature;BMP_pressure;BME280_temperature;BME280_humidity;BME280_pressure;Samples;Min_cycle;Max_cycle;Signal;HPM_P1;HPM_P2
2021/12/12 00:01:19;;;;;;;3.60;1.03;;;-10.10;93.20;;;;;;2216051;64;20608;-36
2021/12/12 00:03:49;;;;;;;3.17;1.17;;;-10.10;93.20;;;;;;2216300;64;20119;-32
2021/12/12 00:06:28;;;;;;;3.43;1.23;;;-10.10;93.20;;;;;;2216043;64;20097;-34
2021/12/12 00:09:02;;;;;;;1.63;0.70;;;-10.10;93.10;;;;;;2216112;64;20463;-34
2021/12/12 00:11:29;;;;;;;3.73;1.80;;;-10.20;93.10;;;;;;2216119;64;20106;-33
2021/12/12 00:13:59;;;;;;;1.90;0.80;;;-10.20;93.10;;;;;;2216209;64;20143;-33
2021/12/12 00:16:25;;;;;;;5.43;1.03;;;-10.30;93.20;;;;;;2217329;64;20100;-34
2021/12/12 00:18:52;;;;;;;2.87;0.33;;;-10.20;93.30;;;;;;2220223;64;20135;-40
2021/12/12 00:21:20;;;;;;;1.70;0.73;;;-10.20;93.20;;;;;;2220390;64;20089;-34
2021/12/12 00:23:47;;;;;;;3.93;1.37;;;-10.20;93.10;;;;;;2220361;64;20097;-35
2021/12/12 00:26:13;;;;;;;9.67;2.10;;;-10.20;93.10;;;;;;2220233;64;20115;-32
2021/12/12 00:28:40;;;;;;;3.37;0.80;;;-10.20;93.40;;;;;;2220433;64;20173;-40
2021/12/12 00:31:10;;;;;;;3.27;1.10;;;-10.20;93.20;;;;;;2220366;64;20164;-33
2021/12/12 00:33:42;;;;;;;0.90;0.67;;;-10.20;93.20;;;;;;2220479;64;20139;-33
2021/12/12 00:36:09;;;;;;;4.20;0.97;;;-10.20;93.20;;;;;;2220318;64;20096;-33
2021/12/12 00:38:36;;;;;;;6.47;0.87;;;-10.10;93.20;;;;;;2220385;64;20089;-32
2021/12/12 00:41:06;;;;;;;2.90;0.90;;;-10.10;93.10;;;;;;2216973;64;20107;-32
2021/12/12 00:43:36;;;;;;;1.93;0.80;;;-10.10;93.10;;;;;;2220199;64;20153;-35
2021/12/12 00:46:08;;;;;;;3.30;0.77;;;-10.10;93.00;;;;;;2220225;64;20101;-34
2021/12/12 00:48:35;;;;;;;0.63;0.50;;;-10.10;93.00;;;;;;2219618;64;20085;-32
2021/12/12 00:51:05;;;;;;;3.03;0.97;;;-10.20;93.00;;;;;;2219421;64;20469;-33
2021/12/12 00:53:31;;;;;;;4.83;1.13;;;-10.20;93.10;;;;;;2219654;64;20205;-33
2021/12/12 00:55:58;;;;;;;5.70;1.63;;;-10.30;93.10;;;;;;2219642;64;20211;-34
2021/12/12 00:58:25;;;;;;;1.97;0.73;;;-10.30;93.20;;;;;;2219572;64;20104;-33
2021/12/12 01:00:54;;;;;;;4.53;1.37;;;-10.30;93.40;;;;;;2219530;64;20169;-34
2021/12/12 01:03:25;;;;;;;8.57;1.07;;;-10.40;93.40;;;;;;2216398;64;20088;-33
2021/12/12 01:05:53;;;;;;;0.10;0.10;;;-10.40;93.50;;;;;;2216379;64;20097;-34
2021/12/12 01:08:20;;;;;;;2.67;0.70;;;-10.40;93.40;;;;;;2219588;64;20089;-34
2021/12/12 01:10:56;;;;;;;6.70;1.23;;;-10.40;93.40;;;;;;2219563;64;20434;-33
2021/12/12 01:13:22;;;;;;;1.13;0.80;;;-10.50;93.20;;;;;;2219576;64;20088;-33
2021/12/12 01:15:59;;;;;;;4.60;1.07;;;-10.50;93.40;;;;;;2219595;64;20093;-34
2021/12/12 01:18:29;;;;;;;3.17;1.17;;;-10.60;93.50;;;;;;2216299;64;20173;-37
2021/12/12 01:21:17;;;;;;;2.43;1.43;;;-10.60;93.60;;;;;;2219576;64;20124;-34
2021/12/12 01:23:53;;;;;;;3.83;1.33;;;-10.50;93.60;;;;;;2219398;64;20089;-41
2021/12/12 01:26:20;;;;;;;9.87;2.17;;;-10.50;93.50;;;;;;2216315;64;20096;-37
2021/12/12 01:28:49;;;;;;;9.83;2.00;;;-10.50;93.70;;;;;;2219486;64;20099;-35
2021/12/12 01:31:23;;;;;;;8.90;3.00;;;-10.50;93.80;;;;;;2219478;64;20089;-37
2021/12/12 01:33:58;;;;;;;8.30;2.67;;;-10.40;93.70;;;;;;2219597;64;20085;-34
2021/12/12 01:36:31;;;;;;;14.32;4.05;;;-10.40;93.60;;;;;;2216279;64;20144;-33
2021/12/12 01:38:58;;;;;;;12.13;2.67;;;-10.50;93.60;;;;;;2219513;64;20077;-36
2021/12/12 01:41:39;;;;;;;9.77;2.10;;;-10.40;93.50;;;;;;2219473;64;20081;-33
2021/12/12 01:44:23;;;;;;;5.33;2.63;;;-10.40;93.50;;;;;;2219393;64;20097;-33
2021/12/12 01:47:05;;;;;;;4.72;2.13;;;-10.40;93.20;;;;;;2217128;64;20124;-36
2021/12/12 01:49:33;;;;;;;5.00;1.87;;;-10.30;93.10;;;;;;2220072;64;20119;-35
2021/12/12 01:52:00;;;;;;;5.70;2.57;;;-10.30;93.00;;;;;;2219870;64;20127;-33
2021/12/12 01:54:42;;;;;;;9.40;1.73;;;-10.20;92.90;;;;;;2216943;64;20076;-37
2021/12/12 01:57:08;;;;;;;4.27;1.53;;;-10.20;92.70;;;;;;2220093;64;20104;-33
2021/12/12 01:59:38;;;;;;;11.17;3.47;;;-10.30;92.80;;;;;;2220158;64;20085;-35
2021/12/12 02:02:15;;;;;;;8.20;2.53;;;-10.30;92.90;;;;;;2216919;64;20080;-34
2021/12/12 02:04:52;;;;;;;5.33;1.63;;;-10.30;93.00;;;;;;2220181;64;20144;-36
2021/12/12 02:07:22;;;;;;;6.47;2.43;;;-10.30;93.20;;;;;;2219829;64;20572;-32
2021/12/12 02:09:49;;;;;;;10.13;2.30;;;-10.30;93.20;;;;;;2219985;64;20088;-37
2021/12/12 02:12:16;;;;;;;10.40;2.17;;;-10.30;93.20;;;;;;2220096;64;20565;-34
2021/12/12 02:14:42;;;;;;;7.07;2.20;;;-10.40;93.20;;;;;;2213699;64;20092;-33
2021/12/12 02:17:20;;;;;;;9.97;2.53;;;-10.40;93.30;;;;;;2220050;64;20119;-32
2021/12/12 02:20:04;;;;;;;8.60;2.80;;;-10.40;93.40;;;;;;2219970;64;20485;-35
2021/12/12 02:22:52;;;;;;;8.43;2.83;;;-10.40;93.90;;;;;;2220514;64;20084;-37
2021/12/12 02:36:20;;;;;;;17.10;4.50;;;-10.40;93.80;;;;;;2219880;64;20152;-35
2021/12/12 02:38:48;;;;;;;12.57;4.13;;;-10.30;93.80;;;;;;2219924;64;20077;-47
2021/12/12 02:41:15;;;;;;;9.00;3.57;;;-10.30;93.70;;;;;;2219941;64;20084;-34
2021/12/12 02:43:48;;;;;;;5.27;2.20;;;-10.30;93.60;;;;;;2219938;64;20565;-38
2021/12/12 02:46:17;;;;;;;13.40;3.07;;;-10.30;93.50;;;;;;2223047;64;20193;-42
2021/12/12 02:48:45;;;;;;;9.93;3.47;;;-10.20;93.50;;;;;;2220196;64;20092;-33
2021/12/12 02:51:15;;;;;;;3.50;1.40;;;-10.20;93.40;;;;;;2219888;64;20085;-33
2021/12/12 02:53:50;;;;;;;6.70;2.70;;;-10.20;93.30;;;;;;2216700;64;20096;-36
2021/12/12 02:56:20;;;;;;;4.13;0.93;;;-10.10;93.40;;;;;;2223086;64;20476;-32
2021/12/12 02:58:46;;;;;;;3.33;1.67;;;-10.10;93.30;;;;;;2223267;64;20169;-33
2021/12/12 03:01:18;;;;;;;0.93;0.70;;;-10.10;93.20;;;;;;2216512;64;20106;-32
2021/12/12 03:03:45;;;;;;;3.40;0.87;;;-10.10;93.20;;;;;;2220005;64;20108;-33
2021/12/12 03:06:14;;;;;;;0.67;0.17;;;-10.10;93.10;;;;;;2223165;64;20103;-32
2021/12/12 03:08:42;;;;;;;8.60;2.20;;;-10.10;93.10;;;;;;2223035;64;20077;-34
2021/12/12 03:11:09;;;;;;;3.30;1.13;;;-10.10;93.00;;;;;;2220000;64;20275;-38
2021/12/12 03:13:35;;;;;;;1.83;0.70;;;-10.10;93.00;;;;;;2223773;64;20107;-38
2021/12/12 03:16:02;;;;;;;0.70;0.50;;;-10.20;93.00;;;;;;2220483;64;20147;-37
2021/12/12 03:18:32;;;;;;;5.03;1.70;;;-10.10;93.00;;;;;;2220443;64;20110;-33
2021/12/12 03:21:02;;;;;;;1.50;0.77;;;-10.10;93.10;;;;;;2220381;64;20124;-33
2021/12/12 03:23:33;;;;;;;6.40;1.40;;;-10.10;93.00;;;;;;2223535;64;20550;-32
2021/12/12 03:26:03;;;;;;;1.47;0.87;;;-10.10;93.10;;;;;;2223590;64;20096;-33
2021/12/12 03:28:31;;;;;;;3.00;1.10;;;-10.00;93.00;;;;;;2223638;64;20572;-32
2021/12/12 03:31:00;;;;;;;7.33;1.53;;;-10.00;92.80;;;;;;2220481;64;20093;-33
2021/12/12 03:33:28;;;;;;;7.70;1.40;;;-10.00;92.70;;;;;;2223626;64;20065;-33
2021/12/12 03:35:55;;;;;;;4.37;1.20;;;-10.00;92.70;;;;;;2220478;64;20096;-34
2021/12/12 03:38:24;;;;;;;2.73;1.13;;;-9.90;92.50;;;;;;2215287;64;20081;-33
2021/12/12 03:40:50;;;;;;;5.67;0.93;;;-10.00;92.50;;;;;;2214578;64;20136;-45
2021/12/12 03:43:17;;;;;;;5.50;1.27;;;-9.90;92.50;;;;;;2214826;64;20153;-33
2021/12/12 03:45:44;;;;;;;6.03;1.47;;;-9.90;92.50;;;;;;2214822;64;20112;-33
2021/12/12 03:48:19;;;;;;;5.57;1.60;;;-9.90;92.40;;;;;;2211592;64;20082;-33
2021/12/12 03:50:45;;;;;;;;;;;-9.80;92.50;;;;;;2204709;64;20082;-33
2021/12/12 03:53:12;;;;;;;6.73;1.40;;;-9.90;92.50;;;;;;2210915;64;20056;-33
2021/12/12 03:55:40;;;;;;;4.17;1.00;;;-9.90;92.60;;;;;;2210896;64;20094;-34
2021/12/12 03:58:07;;;;;;;2.53;0.73;;;-9.80;92.80;;;;;;2210657;64;20094;-34
2021/12/12 04:00:37;;;;;;;6.63;1.10;;;-9.80;92.90;;;;;;2204400;64;20170;-32
2021/12/12 04:03:04;;;;;;;5.00;1.57;;;-9.80;93.00;;;;;;2210959;64;20546;-34
2021/12/12 04:05:31;;;;;;;3.43;1.00;;;-9.80;93.20;;;;;;2207736;64;20105;-32
2021/12/12 04:07:57;;;;;;;5.03;1.43;;;-9.80;93.20;;;;;;2204510;64;20101;-42
2021/12/12 04:10:24;;;;;;;5.27;1.30;;;-9.80;93.40;;;;;;2211317;64;20081;-34
2021/12/12 04:12:52;;;;;;;2.20;0.90;;;-9.80;93.40;;;;;;2214849;64;20113;-35
2021/12/12 04:15:18;;;;;;;3.30;1.50;;;-9.80;93.50;;;;;;2212293;64;20202;-35
2021/12/12 04:17:45;;;;;;;9.53;1.33;;;-9.80;93.60;;;;;;2215446;64;20642;-33
2021/12/12 04:20:19;;;;;;;5.33;1.70;;;-9.80;93.60;;;;;;2209112;64;20092;-35
2021/12/12 04:22:46;;;;;;;4.97;1.30;;;-9.80;93.60;;;;;;2212075;64;20179;-33
2021/12/12 04:25:13;;;;;;;6.17;2.27;;;-9.80;93.50;;;;;;2215430;64;20089;-32
2021/12/12 04:27:39;;;;;;;4.30;1.70;;;-9.80;93.50;;;;;;2211888;64;20119;-38
2021/12/12 04:30:07;;;;;;;5.27;1.03;;;-9.80;93.40;;;;;;2212088;64;20097;-37
2021/12/12 04:32:34;;;;;;;6.93;1.20;;;-9.80;93.40;;;;;;2212220;64;20168;-33
2021/12/12 04:35:20;;;;;;;5.23;1.73;;;-9.80;93.50;;;;;;2212275;64;20160;-35
2021/12/12 04:37:47;;;;;;;8.10;1.97;;;-9.80;93.40;;;;;;2212088;64;20111;-34
2021/12/12 04:40:16;;;;;;;2.93;1.10;;;-9.80;93.40;;;;;;2208932;64;20487;-33
2021/12/12 04:42:44;;;;;;;5.83;1.67;;;-9.80;93.30;;;;;;2215266;64;20089;-36
2021/12/12 04:45:38;;;;;;;9.83;1.43;;;-9.80;93.20;;;;;;2216201;64;20111;-33
2021/12/12 04:51:45;;;;;;;4.80;0.80;;;-9.70;93.10;;;;;;2216230;64;20122;-33
2021/12/12 04:54:23;;;;;;;4.50;1.42;;;-9.70;93.00;;;;;;2219032;64;20088;-35
2021/12/12 04:56:54;;;;;;;4.20;1.00;;;-9.70;92.90;;;;;;2215940;64;20100;-33
2021/12/12 04:59:26;;;;;;;4.63;1.10;;;-9.70;92.80;;;;;;2219351;64;20097;-34
2021/12/12 05:02:15;;;;;;;3.93;0.83;;;-9.70;92.80;;;;;;2216220;64;20560;-32
2021/12/12 05:05:12;;;;;;;4.50;1.13;;;-9.70;92.80;;;;;;2215746;64;20102;-34
2021/12/12 05:07:47;;;;;;;6.03;1.10;;;-9.70;92.60;;;;;;2218978;64;20100;-38
2021/12/12 05:10:24;;;;;;;3.10;0.80;;;-9.70;92.60;;;;;;2218987;64;20165;-34
2021/12/12 05:13:11;;;;;;;4.20;1.00;;;-9.60;92.60;;;;;;2215884;64;20568;-33
2021/12/12 05:15:43;;;;;;;2.10;0.80;;;-9.60;92.40;;;;;;2216344;64;20180;-34
2021/12/12 05:18:31;;;;;;;3.10;1.00;;;-9.60;92.20;;;;;;2215637;64;20105;-33
2021/12/12 05:21:06;;;;;;;7.23;1.00;;;-9.50;92.10;;;;;;2215800;64;20151;-36
2021/12/12 05:23:33;;;;;;;1.33;0.73;;;-9.50;91.80;;;;;;2215854;64;20092;-33
2021/12/12 05:26:01;;;;;;;4.00;0.90;;;-9.40;91.70;;;;;;2209393;64;20092;-35
2021/12/12 05:28:54;;;;;;;5.17;0.77;;;-9.30;91.40;;;;;;2220443;64;20112;-37
2021/12/12 05:31:21;;;;;;;1.57;0.63;;;-9.20;91.20;;;;;;2213910;64;20530;-33
2021/12/12 05:33:51;;;;;;;4.27;1.37;;;-9.10;91.00;;;;;;2216714;64;20156;-37
2021/12/12 05:36:18;;;;;;;5.70;1.93;;;-9.00;90.60;;;;;;2219891;64;20088;-35
2021/12/12 05:38:45;;;;;;;7.23;1.80;;;-8.80;90.30;;;;;;2220098;64;20096;-33
2021/12/12 05:41:12;;;;;;;3.83;1.17;;;-8.70;90.00;;;;;;2216930;64;20080;-35
2021/12/12 05:43:38;;;;;;;4.57;0.90;;;-8.50;89.40;;;;;;2213288;64;20599;-34
2021/12/12 05:46:05;;;;;;;4.37;0.90;;;-8.30;88.50;;;;;;2216803;64;20108;-32
2021/12/12 05:48:32;;;;;;;3.80;0.77;;;-8.20;86.90;;;;;;2216786;64;20088;-35
2021/12/12 05:50:59;;;;;;;6.90;1.03;;;-8.00;86.30;;;;;;2216880;64;20092;-33
2021/12/12 05:53:26;;;;;;;3.63;1.47;;;-7.70;85.00;;;;;;2217021;64;20118;-34
2021/12/12 05:55:53;;;;;;;2.30;0.70;;;-7.50;83.80;;;;;;2220119;64;20512;-34
2021/12/12 05:58:22;;;;;;;4.70;1.20;;;-7.30;82.40;;;;;;2223003;64;20176;-35
2021/12/12 06:00:56;;;;;;;2.13;0.73;;;-7.10;81.80;;;;;;2223124;64;20477;-39
2021/12/12 06:03:25;;;;;;;1.53;0.47;;;-7.00;80.80;;;;;;2223087;64;20103;-34
2021/12/12 06:05:52;;;;;;;2.17;0.80;;;-7.00;81.30;;;;;;2223216;64;20088;-34
2021/12/12 06:08:20;;;;;;;2.10;0.33;;;-6.70;79.50;;;;;;2223258;64;20492;-33
2021/12/12 06:10:47;;;;;;;1.40;0.47;;;-6.60;78.80;;;;;;2216663;64;20160;-33
2021/12/12 06:13:15;;;;;;;0.50;0.27;;;-6.30;77.00;;;;;;2220004;64;20085;-33
2021/12/12 06:15:45;;;;;;;0.70;0.40;;;-6.10;75.70;;;;;;2223157;64;20092;-33
2021/12/12 06:18:12;;;;;;;2.93;0.77;;;-6.10;74.50;;;;;;2219944;64;20171;-33
2021/12/12 06:20:40;;;;;;;3.50;1.33;;;-6.00;74.10;;;;;;2223140;64;20224;-34
2021/12/12 06:23:08;;;;;;;3.23;0.60;;;-5.90;73.70;;;;;;2222971;64;20174;-39
2021/12/12 06:25:36;;;;;;;4.33;1.33;;;-5.60;72.50;;;;;;2219904;64;20092;-37
2021/12/12 06:28:15;;;;;;;2.60;0.60;;;-5.50;72.10;;;;;;2222922;64;20569;-34
2021/12/12 06:30:41;;;;;;;2.17;0.43;;;-5.50;72.20;;;;;;2216766;64;20107;-37
2021/12/12 06:33:09;;;;;;;5.80;1.03;;;-5.40;71.00;;;;;;2223127;64;20093;-38
2021/12/12 06:35:36;;;;;;;7.70;1.17;;;-5.70;71.70;;;;;;2223198;64;20512;-36
2021/12/12 06:38:06;;;;;;;3.33;0.77;;;-5.90;72.80;;;;;;2219690;64;20103;-38
2021/12/12 06:40:33;;;;;;;3.17;1.27;;;-5.80;72.70;;;;;;2223192;64;20094;-36
2021/12/12 06:43:01;;;;;;;5.97;1.20;;;-5.20;71.80;;;;;;2222906;64;20131;-34
2021/12/12 06:45:28;;;;;;;3.90;1.43;;;-4.50;67.60;;;;;;2219991;64;20103;-33
2021/12/12 06:47:55;;;;;;;5.53;1.03;;;-4.30;66.30;;;;;;2221533;64;20178;-33
2021/12/12 06:50:22;;;;;;;7.57;1.50;;;-3.80;64.30;;;;;;2220627;64;20169;-33
2021/12/12 06:52:49;;;;;;;8.90;1.47;;;-3.70;63.20;;;;;;2220581;64;20144;-32
2021/12/12 06:55:15;;;;;;;9.87;2.10;;;-4.00;63.70;;;;;;2217250;64;20468;-31
2021/12/12 06:57:42;;;;;;;23.03;3.80;;;-3.80;63.60;;;;;;2220542;64;20092;-31
2021/12/12 07:00:11;;;;;;;8.70;1.70;;;-3.40;62.60;;;;;;2217275;64;20626;-33
2021/12/12 07:02:39;;;;;;;26.67;3.20;;;-3.20;61.20;;;;;;2220417;64;20096;-33
2021/12/12 07:05:07;;;;;;;11.00;2.13;;;-3.30;61.60;;;;;;2220529;64;20093;-32
2021/12/12 07:07:33;;;;;;;8.97;1.60;;;-2.60;61.70;;;;;;2220372;64;20112;-37
2021/12/12 07:10:00;;;;;;;5.77;1.20;;;-1.70;59.30;;;;;;2217460;64;20117;-37
2021/12/12 07:12:27;;;;;;;6.47;1.40;;;-2.20;56.20;;;;;;2208392;64;20461;-32
2021/12/12 07:14:54;;;;;;;14.83;1.67;;;-2.10;56.50;;;;;;2208401;64;20477;-33
2021/12/12 07:17:21;;;;;;;16.63;1.63;;;-2.30;56.40;;;;;;2208472;64;20085;-34
2021/12/12 07:19:48;;;;;;;17.90;1.77;;;-2.40;57.30;;;;;;2205353;64;20090;-32
2021/12/12 07:22:15;;;;;;;26.27;2.63;;;-2.40;58.50;;;;;;2208402;64;20153;-32
2021/12/12 07:24:45;;;;;;;9.33;1.73;;;-2.30;58.60;;;;;;2205241;64;20430;-32
2021/12/12 07:27:16;;;;;;;14.27;1.70;;;-2.60;59.10;;;;;;2208275;64;20097;-30
2021/12/12 07:29:42;;;;;;;13.90;2.17;;;-3.10;61.20;;;;;;2208394;64;20581;-31
2021/12/12 07:32:09;;;;;;;20.57;2.00;;;-2.60;62.00;;;;;;2205236;64;20094;-31
2021/12/12 07:34:37;;;;;;;14.03;2.10;;;-1.90;60.20;;;;;;2205154;64;20140;-31
2021/12/12 07:37:06;;;;;;;13.13;2.03;;;-1.80;59.20;;;;;;2208445;64;20637;-47
2021/12/12 07:39:33;;;;;;;16.53;2.17;;;-1.60;59.00;;;;;;2208504;64;20566;-36
2021/12/12 07:42:02;;;;;;;26.73;3.10;;;-0.20;58.00;;;;;;2208597;64;20194;-31
2021/12/12 07:44:31;;;;;;;8.63;2.47;;;0.00;53.70;;;;;;2218798;64;20092;-32
2021/12/12 07:46:58;;;;;;;14.57;2.77;;;-0.90;57.50;;;;;;2220280;64;20105;-32
2021/12/12 07:49:29;;;;;;;23.53;2.17;;;-1.50;59.00;;;;;;2220261;64;20111;-31
2021/12/12 07:51:56;;;;;;;5.37;1.70;;;-1.60;59.00;;;;;;2220483;64;20653;-30
2021/12/12 07:54:22;;;;;;;24.67;2.70;;;-1.20;59.80;;;;;;2220261;64;20454;-32
2021/12/12 07:56:49;;;;;;;10.23;2.10;;;-1.30;59.90;;;;;;2217140;64;20468;-30
2021/12/12 07:59:16;;;;;;;9.50;2.43;;;-2.20;61.60;;;;;;2216930;64;20120;-32
2021/12/12 08:01:45;;;;;;;5.83;2.00;;;-2.40;63.90;;;;;;2220235;64;20103;-33
2021/12/12 08:04:12;;;;;;;31.53;3.67;;;-2.50;64.70;;;;;;2220125;64;20446;-31
2021/12/12 08:06:39;;;;;;;6.20;2.00;;;-2.50;65.10;;;;;;2220221;64;20561;-32
2021/12/12 08:09:07;;;;;;;16.97;2.90;;;-2.50;65.20;;;;;;2217104;64;20140;-52
2021/12/12 08:11:33;;;;;;;21.13;2.70;;;-2.00;63.50;;;;;;2217233;64;20092;-30
2021/12/12 08:14:02;;;;;;;19.10;2.90;;;-2.40;63.90;;;;;;2220227;64;20099;-31
2021/12/12 08:16:29;;;;;;;13.37;3.23;;;-2.10;62.60;;;;;;2220143;64;20584;-32
2021/12/12 08:18:56;;;;;;;26.57;3.90;;;-2.00;59.40;;;;;;2217038;64;20564;-31
2021/12/12 08:21:23;;;;;;;20.77;4.67;;;-2.00;59.50;;;;;;2220306;64;20607;-35
2021/12/12 08:23:50;;;;;;;29.93;4.03;;;-2.20;59.20;;;;;;2223548;64;20100;-32
2021/12/12 08:26:17;;;;;;;52.87;6.13;;;-2.30;60.90;;;;;;2216961;64;20111;-32
2021/12/12 08:28:44;;;;;;;16.27;3.50;;;-2.40;61.00;;;;;;2220286;64;20096;-34
2021/12/12 08:31:12;;;;;;;35.83;5.90;;;-2.50;61.20;;;;;;2220296;64;20107;-34
2021/12/12 08:33:39;;;;;;;17.77;3.93;;;-2.60;61.10;;;;;;2220338;64;20080;-34
2021/12/12 08:36:05;;;;;;;19.20;4.40;;;-2.70;62.10;;;;;;2217073;64;20126;-31
2021/12/12 08:38:32;;;;;;;25.27;3.07;;;-2.40;60.60;;;;;;2220184;64;20091;-30
2021/12/12 08:41:00;;;;;;;27.63;5.33;;;-2.20;58.80;;;;;;2217057;64;20123;-31
2021/12/12 08:43:27;;;;;;;19.73;5.27;;;-2.50;61.10;;;;;;2220254;64;20108;-30
2021/12/12 08:45:59;;;;;;;13.80;4.67;;;-2.40;60.30;;;;;;2220131;64;20505;-31
2021/12/12 08:48:27;;;;;;;40.80;6.60;;;-2.40;60.20;;;;;;2220167;64;20457;-30
2021/12/12 08:50:57;;;;;;;30.43;6.33;;;-2.50;60.10;;;;;;2220186;64;20093;-30
2021/12/12 08:53:24;;;;;;;24.77;5.40;;;-2.70;61.40;;;;;;2220109;64;20513;-32
2021/12/12 08:55:52;;;;;;;42.63;7.57;;;-2.40;60.20;;;;;;2216874;64;20088;-30
2021/12/12 08:58:27;;;;;;;38.77;5.70;;;-2.30;59.60;;;;;;2220224;64;20085;-30
2021/12/12 09:01:00;;;;;;;;;;;-2.30;59.70;;;;;;2220374;64;20089;-30
2021/12/12 09:03:52;;;;;;;25.67;5.37;;;-2.80;60.80;;;;;;2219900;64;19992;-30
2021/12/12 09:06:19;;;;;;;30.27;7.07;;;-2.70;61.40;;;;;;2217649;64;20461;-33
2021/12/12 09:08:58;;;;;;;31.27;7.77;;;-2.80;63.00;;;;;;2220069;64;20630;-31
2021/12/12 09:11:53;;;;;;;41.30;7.63;;;-2.80;63.80;;;;;;2220152;64;20542;-30
2021/12/12 09:14:21;;;;;;;34.38;7.35;;;-2.50;63.40;;;;;;2219337;64;20135;-31
2021/12/12 09:16:54;;;;;;;30.10;5.40;;;-2.50;64.60;;;;;;2223384;64;20187;-37
2021/12/12 09:19:25;;;;;;;29.30;6.57;;;-2.20;70.40;;;;;;2217011;64;20178;-31
2021/12/12 09:22:16;;;;;;;23.33;5.40;;;-1.80;68.20;;;;;;2220172;64;20099;-30
2021/12/12 09:25:05;;;;;;;29.07;7.20;;;-2.10;67.10;;;;;;2216725;64;20093;-31
2021/12/12 09:27:40;;;;;;;23.23;5.23;;;-2.00;67.30;;;;;;2210187;64;20112;-31
2021/12/12 09:30:11;;;;;;;;;;;-2.30;67.30;;;;;;2223363;64;20426;-30
2021/12/12 09:32:50;;;;;;;13.93;4.17;;;-2.20;68.60;;;;;;2220119;64;19983;-31
2021/12/12 09:35:21;;;;;;;20.33;5.80;;;-2.10;68.40;;;;;;2219784;64;20100;-34
2021/12/12 09:38:25;;;;;;;10.60;4.77;;;-2.00;68.40;;;;;;2219851;64;20088;-31
2021/12/12 09:41:11;;;;;;;18.83;5.63;;;-2.30;68.40;;;;;;2218926;64;20110;-29
2021/12/12 09:44:07;;;;;;;19.30;4.53;;;-2.50;71.20;;;;;;2219815;64;20104;-29
2021/12/12 09:46:56;;;;;;;21.13;3.67;;;-2.10;69.40;;;;;;2219606;64;20472;-30
2021/12/12 09:52:52;;;;;;;13.87;4.03;;;-2.30;70.10;;;;;;2217166;64;20089;-29
2021/12/12 09:55:28;;;;;;;7.87;2.80;;;-2.10;69.40;;;;;;2217357;64;20096;-30
2021/12/12 09:58:45;;;;;;;8.33;2.63;;;-2.00;68.90;;;;;;2220044;64;20089;-29
2021/12/12 10:01:26;;;;;;;11.27;3.00;;;-2.00;68.80;;;;;;2214792;64;20096;-50
2021/12/12 10:04:17;;;;;;;11.73;3.00;;;-2.00;69.00;;;;;;2223222;64;20107;-30
2021/12/12 10:07:01;;;;;;;8.27;2.87;;;-2.10;68.70;;;;;;2222873;64;20108;-30
2021/12/12 10:09:52;;;;;;;12.13;3.03;;;-2.00;69.10;;;;;;2219595;64;20533;-30
2021/12/12 10:12:24;;;;;;;14.63;4.23;;;-2.00;69.50;;;;;;2219420;64;20483;-29
2021/12/12 10:14:58;;;;;;;7.10;3.10;;;-1.80;68.00;;;;;;2223077;64;20077;-29
2021/12/12 10:17:45;;;;;;;12.63;3.30;;;-1.70;68.00;;;;;;2216742;64;20089;-29
2021/12/12 10:20:35;;;;;;;17.53;5.27;;;-1.70;66.70;;;;;;2223266;64;20149;-30
2021/12/12 10:23:17;;;;;;;23.10;4.93;;;-1.70;66.70;;;;;;2222991;64;20564;-29
2021/12/12 10:26:29;;;;;;;18.73;4.20;;;-1.70;66.40;;;;;;2223065;64;20472;-46
2021/12/12 10:29:24;;;;;;;22.37;5.30;;;-2.00;67.00;;;;;;2209369;64;20101;-30
2021/12/12 10:32:07;;;;;;;30.07;6.97;;;-2.00;67.80;;;;;;2216489;64;20126;-30
2021/12/12 10:34:41;;;;;;;22.97;4.83;;;-1.80;68.00;;;;;;2216607;64;20148;-31
2021/12/12 10:37:15;;;;;;;26.70;4.63;;;-1.60;66.70;;;;;;2223067;64;20093;-29
2021/12/12 10:40:00;;;;;;;16.10;3.57;;;-1.80;66.40;;;;;;2219892;64;20582;-32
2021/12/12 10:42:31;;;;;;;47.20;5.43;;;-1.50;66.50;;;;;;2219733;64;20111;-30
2021/12/12 10:45:09;;;;;;;46.30;6.57;;;-1.50;65.50;;;;;;2216467;64;20093;-29
2021/12/12 10:47:55;;;;;;;17.87;4.67;;;-1.70;66.00;;;;;;2216620;64;20193;-32
2021/12/12 10:50:33;;;;;;;35.70;5.65;;;-1.80;66.60;;;;;;2219855;64;20119;-29
2021/12/12 10:53:34;;;;;;;20.20;3.13;;;-1.60;67.50;;;;;;2211558;64;20097;-30
2021/12/12 10:56:09;;;;;;;22.03;4.23;;;-1.50;67.20;;;;;;2208830;64;20472;-30
2021/12/12 10:58:51;;;;;;;23.10;3.80;;;-1.40;68.00;;;;;;2208510;64;20097;-30
2021/12/12 11:01:23;;;;;;;10.27;4.53;;;-1.70;68.80;;;;;;2208370;64;20180;-40
2021/12/12 11:03:59;;;;;;;37.97;5.87;;;-1.70;68.50;;;;;;2211812;64;20667;-30
2021/12/12 11:06:40;;;;;;;31.57;6.20;;;-1.80;69.30;;;;;;2211941;64;20555;-29
2021/12/12 11:09:15;;;;;;;29.67;7.90;;;-1.80;69.00;;;;;;2214692;64;20119;-29
2021/12/12 11:11:47;;;;;;;38.97;8.68;;;-1.70;68.90;;;;;;2205363;64;20156;-30
2021/12/12 11:14:24;;;;;;;39.20;8.43;;;-1.90;69.10;;;;;;2208491;64;20251;-31
2021/12/12 11:16:55;;;;;;;44.50;6.77;;;-1.80;67.80;;;;;;2208339;64;20536;-29
2021/12/12 11:19:40;;;;;;;42.50;8.57;;;-1.80;67.10;;;;;;2214876;64;20097;-29
2021/12/12 11:22:21;;;;;;;29.90;7.63;;;-2.00;67.80;;;;;;2214676;64;20081;-31
2021/12/12 11:24:52;;;;;;;32.17;7.37;;;-2.10;68.20;;;;;;2214366;64;20140;-32
2021/12/12 11:27:28;;;;;;;24.53;7.40;;;-2.00;67.80;;;;;;2219663;64;20111;-29
2021/12/12 11:30:03;;;;;;;31.27;6.60;;;-1.90;67.10;;;;;;2219645;64;20096;-45
2021/12/12 11:32:31;;;;;;;29.15;7.03;;;-1.90;66.70;;;;;;2219799;64;20198;-39
2021/12/12 11:35:01;;;;;;;33.43;8.27;;;-1.90;67.10;;;;;;2217030;64;20123;-29
2021/12/12 11:38:02;;;;;;;36.17;8.73;;;-1.80;66.50;;;;;;2220353;64;20580;-29
2021/12/12 11:40:37;;;;;;;27.47;8.47;;;-1.80;65.30;;;;;;2220402;64;20087;-28
2021/12/12 11:43:09;;;;;;;;;;;-1.70;65.10;;;;;;2220345;64;20601;-30
2021/12/12 11:45:41;;;;;;;28.27;8.93;;;-1.60;63.70;;;;;;2220279;64;19965;-30
2021/12/12 11:48:21;;;;;;;37.67;9.53;;;-1.80;64.50;;;;;;2220040;64;20446;-30
2021/12/12 11:51:16;;;;;;;51.00;10.93;;;-2.10;65.70;;;;;;2217193;64;20103;-31
2021/12/12 11:53:47;;;;;;;41.90;10.18;;;-2.10;66.20;;;;;;2220458;64;20099;-30
2021/12/12 11:56:29;;;;;;;63.97;13.60;;;-2.00;65.90;;;;;;2220545;64;20098;-30
2021/12/12 11:59:19;;;;;;;53.90;12.60;;;-2.20;67.20;;;;;;2220217;64;20485;-29
2021/12/12 12:01:51;;;;;;;32.40;7.97;;;-2.50;67.90;;;;;;2220553;64;20123;-30
2021/12/12 12:04:30;;;;;;;28.57;9.67;;;-1.90;65.10;;;;;;2220466;64;20131;-30
2021/12/12 12:07:20;;;;;;;34.27;9.90;;;-2.10;65.90;;;;;;2220175;64;20093;-29
2021/12/12 12:10:04;;;;;;;49.03;10.50;;;-2.00;65.60;;;;;;2217176;64;20108;-30
2021/12/12 12:12:53;;;;;;;37.53;8.27;;;-1.80;65.10;;;;;;2220294;64;20076;-30
2021/12/12 12:15:38;;;;;;;28.00;10.10;;;-1.80;64.10;;;;;;2220273;64;20081;-34
2021/12/12 12:18:31;;;;;;;33.20;8.60;;;-1.90;64.20;;;;;;2223463;64;20464;-32
2021/12/12 12:21:19;;;;;;;8.07;4.10;;;-1.70;64.00;;;;;;2217416;64;20201;-30
2021/12/12 12:24:10;;;;;;;17.50;4.67;;;-1.70;63.30;;;;;;2220397;64;20089;-31
2021/12/12 12:27:15;;;;;;;8.63;3.50;;;-1.60;62.40;;;;;;2220239;64;20092;-31
2021/12/12 12:30:00;;;;;;;25.93;8.93;;;-1.70;63.90;;;;;;2207558;64;20086;-33
2021/12/12 12:32:45;;;;;;;;;;;-1.60;63.40;;;;;;2204505;64;20082;-32
2021/12/12 12:35:39;;;;;;;49.33;14.97;;;-2.30;65.60;;;;;;2207335;64;19985;-32
2021/12/12 12:38:45;;;;;;;50.27;14.80;;;-3.10;69.30;;;;;;2204386;64;20652;-31
2021/12/12 12:41:33;;;;;;;24.58;8.75;;;-3.30;71.50;;;;;;2207397;64;20634;-30
2021/12/12 12:44:33;;;;;;;42.43;13.90;;;-3.10;71.90;;;;;;2207127;64;20471;-30
2021/12/12 12:47:36;;;;;;;31.80;11.00;;;-3.40;72.30;;;;;;2204124;64;20253;-31
2021/12/12 12:50:40;;;;;;;36.00;12.47;;;-3.70;73.40;;;;;;2204282;64;20154;-30
2021/12/12 12:53:13;;;;;;;29.97;11.30;;;-3.90;75.20;;;;;;2207521;64;20501;-31
2021/12/12 12:55:59;;;;;;;26.53;10.47;;;-4.00;75.90;;;;;;2204390;64;20711;-32
2021/12/12 12:58:26;;;;;;;45.13;14.13;;;-4.00;76.30;;;;;;2207559;64;20097;-30
2021/12/12 13:01:08;;;;;;;40.90;13.17;;;-4.30;77.40;;;;;;2204466;64;20112;-49
2021/12/12 13:03:48;;;;;;;47.83;15.30;;;-4.30;77.70;;;;;;2212694;64;20084;-31
2021/12/12 13:06:52;;;;;;;41.53;13.43;;;-4.40;78.10;;;;;;2216888;64;20099;-32
2021/12/12 13:09:39;;;;;;;49.63;13.07;;;-4.50;78.80;;;;;;2220300;64;20102;-31
2021/12/12 13:12:12;;;;;;;51.07;17.67;;;-4.50;79.50;;;;;;2220177;64;20621;-31
2021/12/12 13:14:57;;;;;;;50.20;19.33;;;-4.80;79.70;;;;;;2220188;64;20104;-31
2021/12/12 13:17:44;;;;;;;63.60;22.40;;;-5.10;81.00;;;;;;2216860;64;20265;-33
2021/12/12 13:20:32;;;;;;;68.83;24.23;;;-5.10;81.90;;;;;;2217033;64;20096;-31
2021/12/12 13:23:03;;;;;;;68.63;23.53;;;-4.90;81.60;;;;;;2220187;64;20123;-31
2021/12/12 13:25:34;;;;;;;72.33;23.17;;;-5.30;82.30;;;;;;2215501;64;20104;-33
2021/12/12 13:28:20;;;;;;;72.63;28.27;;;-5.70;84.40;;;;;;2212295;64;20104;-31
2021/12/12 13:31:22;;;;;;;67.33;23.30;;;-5.50;85.10;;;;;;2215694;64;20081;-32
2021/12/12 13:33:58;;;;;;;72.47;27.13;;;-6.00;85.80;;;;;;2215646;64;20073;-31